Aeroporto :
LOGIN :

Iscrizione | Disclaimer

   EN    FR    IT 

 










Sommario :    VFR   VFR Marginale   IFR   IFR Intensivo   IFR Molto Intensivo
Visibilità : 
Base nubi : 
>= 8 km
>= 3000ft
5 / 8 km
1000 / 3000 ft
1500m / 5 km
500 / 1000 ft
800 / 1500m
200 / 500 ft
< 800m
< 200 ft
Simboli :   Temporali  Nebbia  Neve Forte  Precipitazioni Forti  Vento > 20 kt
SIGMETs :   Varie  Temporali  Ghiacco  Turbolenza  Onda orograficha  Ceneri Vulcaniche






- Altitudine del aeroporto : 1521 ft
- Codice IATA : NCY


LFLP - Annecy

ULTIMO METAR :
  • 190730Z AUTO VRB02KT CAVOK 24/17 Q1014 NOSIG

METARs OBSOLETI :
  • 190700Z AUTO 00000KT CAVOK 24/16 Q1014 NOSIG
  • 190630Z AUTO 00000KT CAVOK 22/17 Q1014 NOSIG
  • 190600Z AUTO 00000KT CAVOK 22/16 Q1014 NOSIG
  • 190530Z AUTO 08003KT 050V120 CAVOK 20/16 Q1013 NOSIG
  • 190500Z AUTO 04005KT 360V060 CAVOK 18/16 Q1013 NOSIG
  • 190430Z AUTO 04005KT CAVOK 17/15 Q1013 NOSIG
  • 190400Z AUTO 04005KT CAVOK 16/15 Q1013 NOSIG
  • 190330Z AUTO 02004KT CAVOK 16/15 Q1013 NOSIG
  • 190300Z AUTO 04004KT CAVOK 16/15 Q1013 NOSIG

TAF TAF LFLP
Valido dal 19 a 03 ore il 20 a 03 ore UTC


190200Z 1903/2003 VRB04KT CAVOK



MetMap, La meteo Aeronautica in un colpo d'occhio ! - Copyright ORBIFLY Dicembre 2007 - Disclaimer

ORBIFLY MET'MAP TEAM :

Programmazione e sviluppo : Alexandra Zaïnal
Concezione : Baudouin d'Aumeries
Supporto tecnico e logistico : Manuel Goepfert
Aiuto : Marc-Olivier Méhu
Aiuto per la traduzione : Arnaldo La Scala




FONTI E CREDITI :

   NOAA